createdAt,value
2019-03-31T00:01:54.262Z,100432.88
2019-03-31T00:04:24.053Z,100432.75
2019-03-31T00:06:55.287Z,100433.06
2019-03-31T00:09:26.733Z,100433.00
2019-03-31T00:11:58.009Z,100435.75
2019-03-31T00:14:29.189Z,100432.96
2019-03-31T00:17:00.335Z,100437.19
2019-03-31T00:19:31.427Z,100434.34
2019-03-31T00:22:02.695Z,100434.06
2019-03-31T00:24:33.953Z,100434.10
2019-03-31T00:27:05.143Z,100434.63
2019-03-31T00:29:36.302Z,100431.50
2019-03-31T00:32:07.557Z,100440.64
2019-03-31T00:34:38.630Z,100435.94
2019-03-31T00:37:09.732Z,100440.30
2019-03-31T00:39:40.883Z,100433.87
2019-03-31T00:42:11.972Z,100436.48
2019-03-31T00:44:43.187Z,100434.83
2019-03-31T00:47:14.405Z,100433.09
2019-03-31T00:49:46.472Z,100435.73
2019-03-31T00:52:18.291Z,100437.50
2019-03-31T00:54:49.420Z,100439.64
2019-03-31T00:57:20.659Z,100444.59
2019-03-31T00:59:51.806Z,100440.33
2019-03-31T01:02:26.435Z,100436.47
2019-03-31T01:04:57.586Z,100434.84
2019-03-31T01:07:29.276Z,100433.97
2019-03-31T01:10:00.520Z,100431.35
2019-03-31T01:12:32.634Z,100433.04
2019-03-31T01:15:06.162Z,100429.97
2019-03-31T01:17:37.484Z,100432.97
2019-03-31T01:20:09.188Z,100430.95
2019-03-31T01:22:40.369Z,100431.47
2019-03-31T01:25:11.523Z,100428.53
2019-03-31T01:27:43.002Z,100430.73
2019-03-31T01:30:15.884Z,100430.27
2019-03-31T01:32:47.924Z,100436.39
2019-03-31T01:35:19.788Z,100431.34
2019-03-31T01:37:50.904Z,100431.05
2019-03-31T01:40:22.578Z,100427.14
2019-03-31T01:42:53.594Z,100431.77
2019-03-31T01:45:25.973Z,100427.54
2019-03-31T01:47:57.118Z,100430.55
2019-03-31T01:50:28.925Z,100435.44
2019-03-31T01:52:59.930Z,100436.42
2019-03-31T01:55:31.011Z,100436.59
2019-03-31T01:58:02.102Z,100447.59
2019-03-31T02:00:55.924Z,100442.00
2019-03-31T02:03:27.090Z,100445.91
2019-03-31T02:05:58.255Z,100449.02
2019-03-31T02:08:29.615Z,100441.69
2019-03-31T02:11:00.716Z,100439.74
2019-03-31T02:13:31.876Z,100446.92
2019-03-31T02:16:03.258Z,100437.28
2019-03-31T02:18:34.401Z,100438.18
2019-03-31T02:21:05.578Z,100450.28
2019-03-31T02:23:36.706Z,100450.95
2019-03-31T02:26:08.197Z,100452.40
2019-03-31T02:28:39.375Z,100456.36
2019-03-31T02:31:10.473Z,100457.28
2019-03-31T02:33:41.929Z,100450.00
2019-03-31T02:36:13.051Z,100446.16
2019-03-31T02:38:44.122Z,100450.97
2019-03-31T02:41:15.343Z,100449.67
2019-03-31T02:43:46.336Z,100448.38
2019-03-31T02:46:17.857Z,100449.55
2019-03-31T02:48:49.114Z,100449.67
2019-03-31T02:51:23.081Z,100441.08
2019-03-31T02:53:54.580Z,100447.16
2019-03-31T02:56:27.267Z,100443.27
2019-03-31T02:59:00.064Z,100445.88
2019-03-31T03:01:33.749Z,100446.35
2019-03-31T03:04:07.855Z,100453.70
2019-03-31T03:06:37.926Z,100449.40
2019-03-31T03:09:09.074Z,100450.27
2019-03-31T03:11:43.216Z,100445.53
2019-03-31T03:14:16.001Z,100446.39
2019-03-31T03:16:48.634Z,100449.39
2019-03-31T03:19:20.010Z,100450.27
2019-03-31T03:21:51.619Z,100441.18
2019-03-31T03:24:22.841Z,100443.35
2019-03-31T03:26:54.460Z,100447.67
2019-03-31T03:29:25.616Z,100436.87
2019-03-31T03:31:56.802Z,100441.63
2019-03-31T03:34:27.868Z,100445.05
2019-03-31T03:36:59.031Z,100442.02
2019-03-31T03:39:30.094Z,100437.20
2019-03-31T03:42:01.430Z,100440.16
2019-03-31T03:44:32.572Z,100438.91
2019-03-31T03:47:03.738Z,100440.56
2019-03-31T03:49:34.901Z,100436.23
2019-03-31T03:52:06.865Z,100440.97
2019-03-31T03:54:38.270Z,100439.27
2019-03-31T03:57:09.403Z,100438.08
2019-03-31T03:59:40.583Z,100446.34
2019-03-31T04:02:11.728Z,100452.44
2019-03-31T04:04:42.813Z,100453.73
2019-03-31T04:07:14.334Z,100452.86
2019-03-31T04:09:45.347Z,100455.02
2019-03-31T04:12:16.608Z,100449.39
2019-03-31T04:14:48.854Z,100446.39
2019-03-31T04:17:19.921Z,100443.35
2019-03-31T04:19:51.375Z,100447.27
2019-03-31T04:22:23.033Z,100453.72
2019-03-31T04:24:54.094Z,100453.72
2019-03-31T04:27:25.118Z,100448.09
2019-03-31T04:29:56.138Z,100448.94
2019-03-31T04:32:27.745Z,100448.53
2019-03-31T04:34:59.539Z,100448.94
2019-03-31T04:37:30.640Z,100457.13
2019-03-31T04:40:01.668Z,100453.67
2019-03-31T04:42:33.136Z,100455.39
2019-03-31T04:45:04.279Z,100452.81
2019-03-31T04:47:35.387Z,100456.73
2019-03-31T04:50:06.919Z,100464.45
2019-03-31T04:52:39.256Z,100465.68
2019-03-31T04:55:10.621Z,100464.83
2019-03-31T04:57:41.705Z,100466.51
2019-03-31T05:00:12.979Z,100470.81
2019-03-31T05:02:44.587Z,100468.67
2019-03-31T05:05:17.765Z,100470.47
2019-03-31T05:07:49.487Z,100472.19
2019-03-31T05:10:20.865Z,100476.03
2019-03-31T05:12:52.065Z,100474.27
2019-03-31T05:15:23.330Z,100470.37
2019-03-31T05:17:54.357Z,100471.68
2019-03-31T05:20:26.275Z,100471.68
2019-03-31T05:22:57.353Z,100474.28
2019-03-31T05:25:28.452Z,100477.27
2019-03-31T05:27:59.571Z,100473.35
2019-03-31T05:30:30.725Z,100475.94
2019-03-31T05:33:02.223Z,100479.81
2019-03-31T05:35:34.235Z,100475.95
2019-03-31T05:38:05.649Z,100485.88
2019-03-31T05:40:37.081Z,100488.94
2019-03-31T05:43:08.271Z,100487.23
2019-03-31T05:45:39.487Z,100496.30
2019-03-31T05:48:10.547Z,100495.92
2019-03-31T05:50:41.612Z,100501.12
2019-03-31T05:53:12.787Z,100495.95
2019-03-31T05:55:45.117Z,100499.02
2019-03-31T05:58:16.775Z,100504.22
2019-03-31T06:00:50.012Z,100495.59
2019-03-31T06:03:21.276Z,100495.16
2019-03-31T06:05:52.923Z,100493.44
2019-03-31T06:08:23.977Z,100498.63
2019-03-31T06:10:55.167Z,100495.59
2019-03-31T06:13:27.633Z,100497.33
2019-03-31T06:15:58.833Z,100492.97
2019-03-31T06:18:29.867Z,100485.17
2019-03-31T06:21:02.075Z,100492.92
2019-03-31T06:23:33.497Z,100488.13
2019-03-31T06:26:04.634Z,100498.97
2019-03-31T06:28:35.708Z,100499.84
2019-03-31T06:31:06.923Z,100492.42
2019-03-31T06:33:38.010Z,100501.82
2019-03-31T06:36:09.109Z,100497.41
2019-03-31T06:38:40.565Z,100497.73
2019-03-31T06:41:12.105Z,100499.83
2019-03-31T06:43:43.162Z,100498.06
2019-03-31T06:46:14.456Z,100497.10
2019-03-31T06:48:45.437Z,100496.01
2019-03-31T06:51:17.253Z,100485.09
2019-03-31T06:53:48.315Z,100492.81
2019-03-31T06:56:19.848Z,100493.56
2019-03-31T06:58:51.696Z,100494.73
2019-03-31T07:01:22.845Z,100484.48
2019-03-31T07:03:54.142Z,100498.29
2019-03-31T07:06:25.433Z,100498.80
2019-03-31T07:08:56.523Z,100498.23
2019-03-31T07:11:27.601Z,100499.45
2019-03-31T07:13:58.787Z,100496.66
2019-03-31T07:16:29.991Z,100501.13
2019-03-31T07:19:00.884Z,100504.93
2019-03-31T07:21:34.024Z,100505.97
2019-03-31T07:26:37.127Z,100510.06
2019-03-31T07:29:08.259Z,100518.30
2019-03-31T07:31:39.196Z,100514.66
2019-03-31T07:34:10.367Z,100511.58
2019-03-31T07:36:41.503Z,100507.38
2019-03-31T07:39:12.682Z,100518.27
2019-03-31T07:41:44.071Z,100514.54
2019-03-31T07:44:18.009Z,100510.58
2019-03-31T07:46:52.227Z,100522.17
2019-03-31T07:49:24.763Z,100522.39
2019-03-31T07:51:56.798Z,100520.04
2019-03-31T07:54:28.190Z,100525.91
2019-03-31T07:56:59.278Z,100531.29
2019-03-31T07:59:33.093Z,100529.34
2019-03-31T08:02:02.966Z,100530.03
2019-03-31T08:04:34.148Z,100525.98
2019-03-31T08:07:05.356Z,100527.95
2019-03-31T08:09:37.735Z,100526.38
2019-03-31T08:12:11.005Z,100537.57
2019-03-31T08:14:42.200Z,100539.77
2019-03-31T08:17:13.424Z,100540.87
2019-03-31T08:19:44.568Z,100538.05
2019-03-31T08:22:15.744Z,100537.12
2019-03-31T08:24:46.852Z,100543.78
2019-03-31T08:27:18.235Z,100542.45
2019-03-31T08:29:59.842Z,100538.23
2019-03-31T08:32:22.316Z,100533.91
2019-03-31T08:34:53.800Z,100533.84
2019-03-31T08:37:24.952Z,100534.79
2019-03-31T08:39:56.064Z,100526.03
2019-03-31T08:42:27.201Z,100525.66
2019-03-31T08:44:58.484Z,100519.74
2019-03-31T08:47:29.710Z,100515.94
2019-03-31T08:50:02.350Z,100515.70
2019-03-31T08:52:33.734Z,100524.81
2019-03-31T08:55:05.217Z,100526.38
2019-03-31T08:57:36.752Z,100530.19
2019-03-31T09:00:14.727Z,100533.84
2019-03-31T09:02:46.092Z,100530.55
2019-03-31T09:05:17.319Z,100527.52
2019-03-31T09:07:48.529Z,100530.40
2019-03-31T09:10:20.079Z,100522.84
2019-03-31T09:12:51.750Z,100527.53
2019-03-31T09:15:22.885Z,100531.74
2019-03-31T09:17:54.607Z,100531.58
2019-03-31T09:20:25.830Z,100520.38
2019-03-31T09:22:57.929Z,100526.89
2019-03-31T09:25:29.083Z,100523.45
2019-03-31T09:28:00.269Z,100522.05
2019-03-31T09:30:32.039Z,100530.81
2019-03-31T09:33:04.753Z,100533.78
2019-03-31T09:35:35.849Z,100522.08
2019-03-31T09:38:06.960Z,100519.02
2019-03-31T09:40:38.709Z,100522.00
2019-03-31T09:43:10.043Z,100521.70
2019-03-31T09:45:41.204Z,100518.91
2019-03-31T09:48:12.309Z,100526.70
2019-03-31T09:50:43.306Z,100518.14
2019-03-31T09:53:14.588Z,100513.45
2019-03-31T09:55:45.771Z,100521.84
2019-03-31T09:58:16.980Z,100513.36
2019-03-31T10:00:51.133Z,100522.20
2019-03-31T10:03:22.813Z,100520.77
2019-03-31T10:05:54.549Z,100521.73
2019-03-31T10:08:25.997Z,100521.13
2019-03-31T10:10:57.202Z,100528.48
2019-03-31T10:13:28.379Z,100527.95
2019-03-31T10:16:00.135Z,100531.53
2019-03-31T10:18:32.981Z,100522.34
2019-03-31T10:21:04.887Z,100520.98
2019-03-31T10:23:35.955Z,100526.46
2019-03-31T10:26:07.261Z,100518.44
2019-03-31T10:28:38.382Z,100520.97
2019-03-31T10:31:10.753Z,100519.50
2019-03-31T10:33:41.965Z,100509.44
2019-03-31T10:36:15.347Z,100516.95
2019-03-31T10:38:47.292Z,100504.31
2019-03-31T10:41:18.440Z,100498.67
2019-03-31T10:43:49.629Z,100504.77
2019-03-31T10:46:20.857Z,100503.44
2019-03-31T10:48:52.085Z,100504.06
2019-03-31T10:51:23.314Z,100496.47
2019-03-31T10:53:54.419Z,100485.08
2019-03-31T10:56:25.604Z,100495.63
2019-03-31T10:58:57.465Z,100498.42
2019-03-31T11:01:28.593Z,100476.94
2019-03-31T11:03:59.709Z,100495.05
2019-03-31T11:06:30.854Z,100488.30
2019-03-31T11:09:02.031Z,100490.27
2019-03-31T11:11:33.217Z,100493.63
2019-03-31T11:14:04.879Z,100492.64
2019-03-31T11:16:36.049Z,100500.61
2019-03-31T11:19:07.168Z,100499.97
2019-03-31T11:21:46.328Z,100496.02
2019-03-31T11:24:17.275Z,100500.27
2019-03-31T11:26:48.469Z,100491.34
2019-03-31T11:29:19.633Z,100496.34
2019-03-31T11:31:50.909Z,100506.84
2019-03-31T11:34:22.136Z,100491.29
2019-03-31T11:36:53.299Z,100493.83
2019-03-31T11:39:24.405Z,100489.75
2019-03-31T11:41:55.527Z,100476.14
2019-03-31T11:44:27.859Z,100489.00
2019-03-31T11:46:59.166Z,100478.77
2019-03-31T11:49:30.261Z,100481.41
2019-03-31T11:52:01.385Z,100485.53
2019-03-31T11:54:32.579Z,100483.91
2019-03-31T11:57:03.664Z,100478.11
2019-03-31T11:59:34.843Z,100474.36
2019-03-31T12:02:06.108Z,100474.30
2019-03-31T12:04:37.277Z,100485.00
2019-03-31T12:07:08.463Z,100471.80
2019-03-31T12:09:39.534Z,100486.08
2019-03-31T12:12:10.940Z,100467.77
2019-03-31T12:14:42.147Z,100461.58
2019-03-31T12:17:13.445Z,100465.62
2019-03-31T12:19:44.575Z,100465.08
2019-03-31T12:22:15.715Z,100465.67
2019-03-31T12:24:46.858Z,100461.17
2019-03-31T12:27:18.031Z,100465.12
2019-03-31T12:29:49.178Z,100456.65
2019-03-31T12:32:20.251Z,100457.37
2019-03-31T12:34:51.454Z,100443.80
2019-03-31T12:37:22.594Z,100437.66
2019-03-31T12:39:53.614Z,100444.72
2019-03-31T12:42:24.855Z,100439.98
2019-03-31T12:44:55.942Z,100440.73
2019-03-31T12:47:27.148Z,100432.17
2019-03-31T12:49:58.781Z,100434.95
2019-03-31T12:52:29.931Z,100426.18
2019-03-31T12:55:01.056Z,100435.14
2019-03-31T12:57:32.241Z,100427.48
2019-03-31T13:00:03.687Z,100429.34
2019-03-31T13:02:34.729Z,100418.82
2019-03-31T13:05:06.034Z,100421.32
2019-03-31T13:07:37.143Z,100421.06
2019-03-31T13:10:08.342Z,100419.44
2019-03-31T13:12:39.455Z,100420.14
2019-03-31T13:15:10.838Z,100412.58
2019-03-31T13:17:42.116Z,100418.36
2019-03-31T13:20:13.704Z,100407.38
2019-03-31T13:22:46.078Z,100403.06
2019-03-31T13:25:17.518Z,100405.27
2019-03-31T13:27:48.577Z,100402.52
2019-03-31T13:30:21.961Z,100397.17
2019-03-31T13:32:52.908Z,100399.99
2019-03-31T13:35:23.968Z,100402.38
2019-03-31T13:37:55.135Z,100394.95
2019-03-31T13:40:26.269Z,100393.72
2019-03-31T13:42:57.384Z,100382.83
2019-03-31T13:45:28.875Z,100389.77
2019-03-31T13:48:00.083Z,100390.09
2019-03-31T13:50:31.216Z,100387.78
2019-03-31T13:53:02.398Z,100380.00
2019-03-31T13:55:33.590Z,100378.75
2019-03-31T13:58:06.139Z,100396.39
2019-03-31T14:00:43.139Z,100384.74
2019-03-31T14:03:14.566Z,100385.64
2019-03-31T14:05:45.731Z,100373.78
2019-03-31T14:08:25.459Z,100378.03
2019-03-31T14:10:50.286Z,100369.74
2019-03-31T14:13:21.349Z,100369.06
2019-03-31T14:15:52.534Z,100372.52
2019-03-31T14:18:24.038Z,100369.91
2019-03-31T14:20:55.403Z,100372.90
2019-03-31T14:23:26.534Z,100371.22
2019-03-31T14:25:57.837Z,100366.50
2019-03-31T14:28:29.006Z,100370.02
2019-03-31T14:31:00.569Z,100378.16
2019-03-31T14:33:31.723Z,100377.31
2019-03-31T14:36:02.941Z,100388.63
2019-03-31T14:38:40.527Z,100393.90
2019-03-31T14:41:07.672Z,100390.22
2019-03-31T14:43:38.781Z,100395.45
2019-03-31T14:46:10.644Z,100399.23
2019-03-31T14:48:41.832Z,100396.87
2019-03-31T14:51:13.286Z,100405.02
2019-03-31T14:53:44.518Z,100406.42
2019-03-31T14:56:15.745Z,100420.87
2019-03-31T14:58:46.867Z,100404.43
2019-03-31T15:01:21.154Z,100401.88
2019-03-31T15:03:50.851Z,100401.70
2019-03-31T15:06:22.552Z,100407.38
2019-03-31T15:08:54.807Z,100410.60
2019-03-31T15:11:26.085Z,100416.09
2019-03-31T15:13:57.283Z,100410.89
2019-03-31T15:16:28.475Z,100416.89
2019-03-31T15:18:59.774Z,100417.48
2019-03-31T15:21:31.655Z,100415.28
2019-03-31T15:24:02.986Z,100423.09
2019-03-31T15:26:34.235Z,100431.78
2019-03-31T15:29:05.711Z,100428.05
2019-03-31T15:31:36.940Z,100422.75
2019-03-31T15:34:08.075Z,100427.14
2019-03-31T15:36:39.499Z,100427.39
2019-03-31T15:39:11.079Z,100432.52
2019-03-31T15:41:42.745Z,100428.80
2019-03-31T15:44:16.491Z,100424.23
2019-03-31T15:46:46.512Z,100445.31
2019-03-31T15:49:18.942Z,100434.20
2019-03-31T15:51:50.429Z,100440.41
2019-03-31T15:54:21.657Z,100455.41
2019-03-31T15:56:55.243Z,100458.98
2019-03-31T15:59:26.914Z,100434.81
2019-03-31T16:01:58.086Z,100446.11
2019-03-31T16:04:29.204Z,100432.83
2019-03-31T16:07:00.419Z,100442.56
2019-03-31T16:09:30.749Z,100439.75
2019-03-31T16:12:01.086Z,100448.50
2019-03-31T16:14:31.585Z,100453.45
2019-03-31T16:17:02.426Z,100450.87
2019-03-31T16:19:33.066Z,100455.48
2019-03-31T16:22:03.311Z,100448.55
2019-03-31T16:24:42.283Z,100462.21
2019-03-31T16:27:12.890Z,100460.55
2019-03-31T16:29:43.152Z,100461.93
2019-03-31T16:32:13.821Z,100468.47
2019-03-31T16:34:44.004Z,100470.27
2019-03-31T16:37:14.310Z,100459.00
2019-03-31T16:39:44.612Z,100461.26
2019-03-31T16:42:15.195Z,100459.56
2019-03-31T16:44:57.447Z,100454.37
2019-03-31T16:47:18.299Z,100457.41
2019-03-31T16:49:48.640Z,100452.95
2019-03-31T16:52:20.064Z,100466.45
2019-03-31T16:54:50.914Z,100464.80
2019-03-31T16:57:21.442Z,100462.28
2019-03-31T16:59:51.727Z,100461.08
2019-03-31T17:02:22.055Z,100466.34
2019-03-31T17:04:52.356Z,100455.53
2019-03-31T17:07:23.104Z,100464.44
2019-03-31T17:09:53.528Z,100459.34
2019-03-31T17:12:23.870Z,100472.91
2019-03-31T17:14:54.723Z,100470.39
2019-03-31T17:17:26.033Z,100488.89
2019-03-31T17:19:56.412Z,100479.91
2019-03-31T17:22:26.745Z,100491.56
2019-03-31T17:24:57.290Z,100494.39
2019-03-31T17:27:27.738Z,100485.47
2019-03-31T17:29:58.054Z,100494.87
2019-03-31T17:32:28.541Z,100499.05
2019-03-31T17:34:59.120Z,100506.23
2019-03-31T17:37:29.579Z,100504.65
2019-03-31T17:40:06.544Z,100512.63
2019-03-31T17:42:32.059Z,100513.69
2019-03-31T17:45:02.225Z,100500.00
2019-03-31T17:47:33.208Z,100523.06
2019-03-31T17:50:03.710Z,100515.52
2019-03-31T17:52:34.011Z,100518.63
2019-03-31T17:55:06.076Z,100532.66
2019-03-31T17:57:36.478Z,100527.11
2019-03-31T18:00:09.187Z,100532.06
2019-03-31T18:02:39.507Z,100526.11
2019-03-31T18:05:10.302Z,100534.95
2019-03-31T18:07:40.570Z,100540.66
2019-03-31T18:10:20.660Z,100542.63
2019-03-31T18:12:43.201Z,100544.02
2019-03-31T18:15:14.073Z,100548.82
2019-03-31T18:17:44.455Z,100541.48
2019-03-31T18:20:14.822Z,100553.28
2019-03-31T18:22:45.115Z,100539.07
2019-03-31T18:25:16.715Z,100556.59
2019-03-31T18:27:47.047Z,100560.23
2019-03-31T18:30:17.932Z,100568.95
2019-03-31T18:32:48.619Z,100559.03
2019-03-31T18:35:19.030Z,100569.45
2019-03-31T18:37:49.632Z,100574.31
2019-03-31T18:40:34.330Z,100565.77
2019-03-31T18:42:53.026Z,100564.41
2019-03-31T18:45:23.340Z,100579.75
2019-03-31T18:47:53.637Z,100585.83
2019-03-31T18:50:23.931Z,100581.94
2019-03-31T18:52:54.636Z,100585.93
2019-03-31T18:55:51.901Z,100594.67
2019-03-31T18:58:43.989Z,100595.17
2019-03-31T19:01:26.853Z,100601.28
2019-03-31T19:04:14.851Z,100606.89
2019-03-31T19:07:03.934Z,100601.76
2019-03-31T19:09:51.829Z,100608.70
2019-03-31T19:12:39.877Z,100610.92
2019-03-31T19:15:29.306Z,100621.73
2019-03-31T19:18:30.873Z,100612.69
2019-03-31T19:21:22.332Z,100612.73
2019-03-31T19:24:05.495Z,100623.97
2019-03-31T19:26:53.340Z,100633.17
2019-03-31T19:30:00.759Z,100626.74
2019-03-31T19:32:47.595Z,100633.81
2019-03-31T19:35:33.328Z,100634.20
2019-03-31T19:38:14.268Z,100638.98
2019-03-31T19:41:03.362Z,100641.91
2019-03-31T19:43:52.494Z,100642.91
2019-03-31T19:46:42.509Z,100651.15
2019-03-31T19:49:27.092Z,100655.98
2019-03-31T19:52:31.072Z,100653.02
2019-03-31T19:55:23.451Z,100659.09
2019-03-31T19:58:04.553Z,100651.83
2019-03-31T20:00:43.697Z,100655.27
2019-03-31T20:03:29.788Z,100653.06
2019-03-31T20:06:17.732Z,100658.71
2019-03-31T20:08:53.887Z,100656.97
2019-03-31T20:11:49.547Z,100659.18
2019-03-31T20:14:42.830Z,100663.14
2019-03-31T20:17:32.071Z,100661.45
2019-03-31T20:20:20.640Z,100661.39
2019-03-31T20:23:12.875Z,100665.79
2019-03-31T20:26:04.854Z,100669.69
2019-03-31T20:28:48.595Z,100665.39
2019-03-31T20:31:37.847Z,100673.64
2019-03-31T20:34:29.849Z,100678.00
2019-03-31T20:37:17.853Z,100684.05
2019-03-31T20:40:10.230Z,100687.53
2019-03-31T20:43:02.495Z,100688.84
2019-03-31T20:45:33.933Z,100692.77
2019-03-31T20:48:04.272Z,100691.06
2019-03-31T20:50:34.688Z,100696.70
2019-03-31T20:53:05.022Z,100687.62
2019-03-31T20:55:35.424Z,100695.85
2019-03-31T20:58:05.813Z,100696.73
2019-03-31T21:00:36.438Z,100693.29
2019-03-31T21:03:07.429Z,100696.30
2019-03-31T21:05:38.106Z,100694.59
2019-03-31T21:08:08.479Z,100701.97
2019-03-31T21:10:38.704Z,100705.00
2019-03-31T21:13:09.091Z,100701.55
2019-03-31T21:15:39.463Z,100705.88
2019-03-31T21:18:09.863Z,100708.06
2019-03-31T21:20:40.574Z,100707.18
2019-03-31T21:23:10.869Z,100706.78
2019-03-31T21:25:41.188Z,100706.33
2019-03-31T21:28:11.576Z,100708.94
2019-03-31T21:30:41.884Z,100707.22
2019-03-31T21:33:12.567Z,100706.33
2019-03-31T21:35:43.148Z,100705.48
2019-03-31T21:38:13.441Z,100714.13
2019-03-31T21:40:43.723Z,100712.38
2019-03-31T21:43:14.048Z,100713.69
2019-03-31T21:45:45.454Z,100711.08
2019-03-31T21:48:15.779Z,100716.28
2019-03-31T21:50:46.225Z,100718.02
2019-03-31T21:53:16.530Z,100719.30
2019-03-31T21:55:46.994Z,100711.52
2019-03-31T21:58:17.369Z,100709.36
2019-03-31T22:00:57.451Z,100711.52
2019-03-31T22:03:28.298Z,100715.41
2019-03-31T22:05:58.734Z,100710.66
2019-03-31T22:08:29.040Z,100710.63
2019-03-31T22:10:59.369Z,100712.34
2019-03-31T22:13:29.748Z,100716.69
2019-03-31T22:16:00.019Z,100709.80
2019-03-31T22:18:30.404Z,100712.81
2019-03-31T22:21:00.719Z,100707.61
2019-03-31T22:23:31.049Z,100710.66
2019-03-31T22:26:01.365Z,100708.03
2019-03-31T22:28:32.394Z,100711.90
2019-03-31T22:31:02.912Z,100705.86
2019-03-31T22:33:33.224Z,100703.66
2019-03-31T22:36:21.979Z,100693.30
2019-03-31T22:38:55.015Z,100696.74
2019-03-31T22:41:25.530Z,100690.69
2019-03-31T22:43:56.108Z,100689.84
2019-03-31T22:46:26.479Z,100702.38
2019-03-31T22:48:57.170Z,100695.89
2019-03-31T22:51:27.541Z,100695.42
2019-03-31T22:53:57.880Z,100698.86
2019-03-31T22:56:28.863Z,100696.69
2019-03-31T22:58:59.339Z,100692.34
2019-03-31T23:01:29.713Z,100692.74
2019-03-31T23:04:00.037Z,100693.59
2019-03-31T23:06:30.438Z,100699.61
2019-03-31T23:09:00.771Z,100696.55
2019-03-31T23:11:31.166Z,100690.03
2019-03-31T23:14:01.484Z,100690.48
2019-03-31T23:16:32.171Z,100686.56
2019-03-31T23:19:02.481Z,100686.56
2019-03-31T23:21:32.821Z,100686.56
2019-03-31T23:24:03.151Z,100686.62
2019-03-31T23:26:33.832Z,100687.05
2019-03-31T23:29:04.145Z,100685.74
2019-03-31T23:31:34.679Z,100685.74
2019-03-31T23:34:05.196Z,100684.86
2019-03-31T23:36:35.596Z,100688.30
2019-03-31T23:39:08.209Z,100688.27
2019-03-31T23:41:38.668Z,100684.80
2019-03-31T23:44:08.938Z,100689.98
2019-03-31T23:46:39.488Z,100688.23
2019-03-31T23:49:09.798Z,100687.80
2019-03-31T23:51:40.140Z,100683.00
2019-03-31T23:54:10.468Z,100679.14
2019-03-31T23:56:41.417Z,100684.22
2019-03-31T23:59:11.735Z,100681.17
